This is the latest recevied weather packets stored in our database for station/object N5COP-13. If no packets are shown the sender has not sent any weather packets the latest 1 day(s).
| Time | Temp. | Humidity | Pressure | Rain* | Wind** | Luminosity | Snow |
|---|---|---|---|---|---|---|---|
| 1778040465 | 9.44° C | 61% | 1011.6 hPa | 0 mm | 6.26 m/s, 87° | 0 W/m² | - |
| 1778040162 | 9.44° C | 60% | 1011.8 hPa | 0 mm | 8.05 m/s, 93° | 0 W/m² | - |
| 1778039858 | 10° C | 60% | 1011.8 hPa | 0 mm | 7.15 m/s, 95° | 0 W/m² | - |
| 1778039555 | 10° C | 60% | 1011.7 hPa | 0 mm | 7.15 m/s, 101° | 0 W/m² | - |
| 1778039247 | 10° C | 60% | 1011.5 hPa | 0 mm | 6.26 m/s, 96° | 0 W/m² | - |
| 1778038944 | 10° C | 60% | 1011.6 hPa | 0 mm | 7.15 m/s, 100° | 0 W/m² | - |
| 1778038642 | 10° C | 59% | 1011.6 hPa | 0 mm | 8.05 m/s, 106° | 0 W/m² | - |
| 1778038339 | 10° C | 59% | 1011.6 hPa | 0 mm | 8.49 m/s, 104° | 0 W/m² | - |
| 1778038035 | 10.56° C | 59% | 1011.5 hPa | 0 mm | 9.39 m/s, 105° | 0 W/m² | - |
| 1778037732 | 10.56° C | 58% | 1011.6 hPa | 0 mm | 8.94 m/s, 100° | 0 W/m² | - |
| 1778037429 | 10.56° C | 58% | 1011.6 hPa | 0 mm | 7.6 m/s, 101° | 0 W/m² | - |
| 1778037127 | 10.56° C | 57% | 1011.5 hPa | 0 mm | 8.94 m/s, 93° | 0 W/m² | - |
| 1778036825 | 11.11° C | 57% | 1011.3 hPa | 0 mm | 9.39 m/s, 96° | 0 W/m² | - |
| 1778036521 | 11.11° C | 57% | 1011.4 hPa | 0 mm | 7.6 m/s, 97° | 0 W/m² | - |
| 1778036217 | 11.11° C | 57% | 1011.2 hPa | 0 mm | 7.6 m/s, 89° | 0 W/m² | - |
| 1778035914 | 11.11° C | 57% | 1011.5 hPa | 0 mm | 5.81 m/s, 89° | 0 W/m² | - |
| 1778035612 | 11.11° C | 57% | 1011.1 hPa | 0 mm | 7.15 m/s, 91° | 0 W/m² | - |
| 1778035308 | 11.67° C | 57% | 1011.3 hPa | 0 mm | 8.94 m/s, 95° | 0 W/m² | - |
| 1778035004 | 11.67° C | 57% | 1011.1 hPa | 0 mm | 6.26 m/s, 81° | 0 W/m² | - |
| 1778034702 | 11.67° C | 57% | 1010.9 hPa | 0 mm | 4.47 m/s, 77° | 0 W/m² | - |
| 1778034399 | 11.67° C | 58% | 1010.6 hPa | 0 mm | 7.15 m/s, 77° | 0 W/m² | - |
| 1778034096 | 11.67° C | 59% | 1010.5 hPa | 0 mm | 5.36 m/s, 73° | 0 W/m² | - |
| 1778033794 | 11.67° C | 59% | 1010.7 hPa | 0 mm | 6.71 m/s, 87° | 0 W/m² | - |
| 1778033491 | 11.67° C | 59% | 1011.4 hPa | 0 mm | 6.71 m/s, 79° | 0 W/m² | - |
| 1778033188 | 11.67° C | 58% | 1011.3 hPa | 0 mm | 4.02 m/s, 69° | 0 W/m² | - |
* Rain latest hour (hover to see other rain measurements)
** Current wind speed in m/s (hover to see current wind gust speed)